sensor_id;sensor_type;location;lat;lon;timestamp;P1;durP1;ratioP1;P2;durP2;ratioP2
10440;SDS011;5268;49.346;9.522;2023-04-19T03:09:58;8.73;;;7.50;;
10440;SDS011;5268;49.346;9.522;2023-04-19T03:15:00;8.90;;;7.32;;
10440;SDS011;5268;49.346;9.522;2023-04-19T03:20:02;8.90;;;6.80;;
10440;SDS011;5268;49.346;9.522;2023-04-19T03:25:08;10.13;;;8.10;;
10440;SDS011;5268;49.346;9.522;2023-04-19T03:30:12;10.60;;;8.20;;
10440;SDS011;5268;49.346;9.522;2023-04-19T03:35:14;9.55;;;8.10;;
10440;SDS011;5268;49.346;9.522;2023-04-19T03:40:18;12.60;;;9.27;;
10440;SDS011;5268;49.346;9.522;2023-04-19T03:45:20;10.45;;;8.43;;
10440;SDS011;5268;49.346;9.522;2023-04-19T03:50:22;10.13;;;7.53;;
10440;SDS011;5268;49.346;9.522;2023-04-19T03:55:26;10.73;;;8.00;;
10440;SDS011;5268;49.346;9.522;2023-04-19T04:00:28;10.43;;;8.15;;
10440;SDS011;5268;49.346;9.522;2023-04-19T04:05:30;9.30;;;7.10;;
10440;SDS011;5268;49.346;9.522;2023-04-19T04:10:34;9.57;;;8.20;;
10440;SDS011;5268;49.346;9.522;2023-04-19T04:15:37;10.18;;;7.72;;
10440;SDS011;5268;49.346;9.522;2023-04-19T04:20:39;9.32;;;7.82;;
10440;SDS011;5268;49.346;9.522;2023-04-19T04:25:42;12.63;;;8.88;;
10440;SDS011;5268;49.346;9.522;2023-04-19T04:30:44;10.25;;;7.65;;
10440;SDS011;5268;49.346;9.522;2023-04-19T04:35:46;10.57;;;7.82;;
10440;SDS011;5268;49.346;9.522;2023-04-19T04:40:50;11.02;;;8.40;;
10440;SDS011;5268;49.346;9.522;2023-04-19T04:45:52;11.15;;;8.02;;
10440;SDS011;5268;49.346;9.522;2023-04-19T04:50:56;11.32;;;8.55;;
10440;SDS011;5268;49.346;9.522;2023-04-19T04:55:59;13.35;;;8.63;;
10440;SDS011;5268;49.346;9.522;2023-04-19T05:01:01;10.30;;;7.60;;
10440;SDS011;5268;49.346;9.522;2023-04-19T05:06:04;12.30;;;8.80;;
10440;SDS011;5268;49.346;9.522;2023-04-19T05:11:08;11.05;;;8.15;;
10440;SDS011;5268;49.346;9.522;2023-04-19T05:16:10;12.93;;;9.75;;
10440;SDS011;5268;49.346;9.522;2023-04-19T05:21:12;11.73;;;8.90;;
10440;SDS011;5268;49.346;9.522;2023-04-19T05:26:16;12.43;;;10.05;;
10440;SDS011;5268;49.346;9.522;2023-04-19T05:31:18;12.15;;;9.68;;
10440;SDS011;5268;49.346;9.522;2023-04-19T05:36:21;13.90;;;10.50;;
10440;SDS011;5268;49.346;9.522;2023-04-19T05:41:24;12.70;;;9.77;;
10440;SDS011;5268;49.346;9.522;2023-04-19T05:46:26;12.73;;;9.85;;
10440;SDS011;5268;49.346;9.522;2023-04-19T05:51:28;13.00;;;10.35;;
10440;SDS011;5268;49.346;9.522;2023-04-19T05:56:32;13.05;;;9.57;;
10440;SDS011;5268;49.346;9.522;2023-04-19T06:01:34;15.70;;;12.30;;
10440;SDS011;5268;49.346;9.522;2023-04-19T06:06:36;16.48;;;12.73;;
10440;SDS011;5268;49.346;9.522;2023-04-19T06:11:40;13.95;;;11.30;;
10440;SDS011;5268;49.346;9.522;2023-04-19T06:16:42;20.48;;;16.75;;
10440;SDS011;5268;49.346;9.522;2023-04-19T06:21:44;17.13;;;14.32;;
10440;SDS011;5268;49.346;9.522;2023-04-19T06:26:48;12.45;;;9.65;;
10440;SDS011;5268;49.346;9.522;2023-04-19T06:31:50;12.60;;;9.63;;
10440;SDS011;5268;49.346;9.522;2023-04-19T06:36:51;11.70;;;9.20;;
10440;SDS011;5268;49.346;9.522;2023-04-19T06:41:55;13.68;;;10.38;;
10440;SDS011;5268;49.346;9.522;2023-04-19T06:46:57;14.07;;;10.75;;
10440;SDS011;5268;49.346;9.522;2023-04-19T06:51:59;13.32;;;10.38;;
10440;SDS011;5268;49.346;9.522;2023-04-19T06:57:02;12.18;;;9.85;;
10440;SDS011;5268;49.346;9.522;2023-04-19T07:02:04;14.30;;;10.75;;
10440;SDS011;5268;49.346;9.522;2023-04-19T07:07:07;12.85;;;10.65;;
10440;SDS011;5268;49.346;9.522;2023-04-19T07:12:11;12.98;;;10.45;;
10440;SDS011;5268;49.346;9.522;2023-04-19T07:17:13;15.68;;;11.57;;
10440;SDS011;5268;49.346;9.522;2023-04-19T07:22:17;13.30;;;9.98;;
10440;SDS011;5268;49.346;9.522;2023-04-19T07:27:22;14.02;;;10.40;;
10440;SDS011;5268;49.346;9.522;2023-04-19T07:32:24;13.93;;;9.88;;
10440;SDS011;5268;49.346;9.522;2023-04-19T07:37:26;12.60;;;9.65;;
10440;SDS011;5268;49.346;9.522;2023-04-19T07:42:30;15.13;;;11.43;;
10440;SDS011;5268;49.346;9.522;2023-04-19T07:47:31;22.23;;;15.57;;
10440;SDS011;5268;49.346;9.522;2023-04-19T07:52:33;15.07;;;11.38;;
10440;SDS011;5268;49.346;9.522;2023-04-19T07:57:37;15.32;;;11.45;;
10440;SDS011;5268;49.346;9.522;2023-04-19T08:02:41;13.18;;;10.68;;
10440;SDS011;5268;49.346;9.522;2023-04-19T08:07:44;14.35;;;11.82;;
10440;SDS011;5268;49.346;9.522;2023-04-19T08:12:47;22.48;;;16.20;;
10440;SDS011;5268;49.346;9.522;2023-04-19T08:17:51;11.75;;;10.13;;
10440;SDS011;5268;49.346;9.522;2023-04-19T08:22:53;16.38;;;11.75;;
10440;SDS011;5268;49.346;9.522;2023-04-19T08:27:56;13.20;;;10.68;;
10440;SDS011;5268;49.346;9.522;2023-04-19T08:32:58;14.10;;;10.90;;
10440;SDS011;5268;49.346;9.522;2023-04-19T08:38:00;11.70;;;10.32;;
10440;SDS011;5268;49.346;9.522;2023-04-19T08:43:05;11.65;;;10.30;;
10440;SDS011;5268;49.346;9.522;2023-04-19T08:48:07;12.25;;;10.95;;
10440;SDS011;5268;49.346;9.522;2023-04-19T08:53:11;14.05;;;11.77;;
10440;SDS011;5268;49.346;9.522;2023-04-19T08:58:16;14.88;;;11.95;;
10440;SDS011;5268;49.346;9.522;2023-04-19T09:03:18;13.60;;;11.57;;
10440;SDS011;5268;49.346;9.522;2023-04-19T09:08:21;13.75;;;11.90;;
10440;SDS011;5268;49.346;9.522;2023-04-19T09:13:27;13.10;;;11.70;;
10440;SDS011;5268;49.346;9.522;2023-04-19T09:18:29;13.32;;;10.95;;
10440;SDS011;5268;49.346;9.522;2023-04-19T09:23:31;12.90;;;10.95;;
10440;SDS011;5268;49.346;9.522;2023-04-19T09:28:35;11.35;;;10.15;;
10440;SDS011;5268;49.346;9.522;2023-04-19T09:33:37;12.20;;;10.80;;
10440;SDS011;5268;49.346;9.522;2023-04-19T09:38:45;13.35;;;9.80;;
10440;SDS011;5268;49.346;9.522;2023-04-19T09:43:50;11.80;;;10.40;;
10440;SDS011;5268;49.346;9.522;2023-04-19T09:48:53;11.00;;;9.85;;
10440;SDS011;5268;49.346;9.522;2023-04-19T09:53:55;11.43;;;9.75;;
10440;SDS011;5268;49.346;9.522;2023-04-19T09:58:58;13.15;;;10.18;;
10440;SDS011;5268;49.346;9.522;2023-04-19T10:04:00;12.13;;;8.85;;
10440;SDS011;5268;49.346;9.522;2023-04-19T10:09:04;11.35;;;8.35;;
10440;SDS011;5268;49.346;9.522;2023-04-19T10:14:09;11.23;;;7.93;;
10440;SDS011;5268;49.346;9.522;2023-04-19T10:19:13;9.90;;;7.25;;
10440;SDS011;5268;49.346;9.522;2023-04-19T10:24:18;10.30;;;7.57;;
10440;SDS011;5268;49.346;9.522;2023-04-19T10:34:53;9.80;;;6.97;;
10440;SDS011;5268;49.346;9.522;2023-04-19T10:40:01;8.65;;;7.10;;
10440;SDS011;5268;49.346;9.522;2023-04-19T10:56:00;7.93;;;6.57;;
10440;SDS011;5268;49.346;9.522;2023-04-19T11:06:38;7.30;;;6.40;;
10440;SDS011;5268;49.346;9.522;2023-04-19T11:12:01;9.13;;;6.47;;
10440;SDS011;5268;49.346;9.522;2023-04-19T11:17:13;7.78;;;6.72;;
10440;SDS011;5268;49.346;9.522;2023-04-19T11:22:17;9.05;;;6.32;;
10440;SDS011;5268;49.346;9.522;2023-04-19T11:27:24;8.27;;;7.38;;
10440;SDS011;5268;49.346;9.522;2023-04-19T11:32:26;9.75;;;8.13;;
10440;SDS011;5268;49.346;9.522;2023-04-19T11:37:32;7.45;;;6.68;;
10440;SDS011;5268;49.346;9.522;2023-04-19T11:42:35;6.68;;;5.60;;
10440;SDS011;5268;49.346;9.522;2023-04-19T11:47:45;5.82;;;4.95;;
10440;SDS011;5268;49.346;9.522;2023-04-19T11:52:49;6.53;;;5.57;;
10440;SDS011;5268;49.346;9.522;2023-04-19T11:57:51;6.63;;;5.00;;
10440;SDS011;5268;49.346;9.522;2023-04-19T12:02:53;5.45;;;4.80;;
10440;SDS011;5268;49.346;9.522;2023-04-19T12:08:00;6.45;;;4.95;;
10440;SDS011;5268;49.346;9.522;2023-04-19T12:13:15;5.63;;;4.57;;
10440;SDS011;5268;49.346;9.522;2023-04-19T12:18:17;6.10;;;5.47;;
10440;SDS011;5268;49.346;9.522;2023-04-19T12:23:21;5.78;;;4.70;;
10440;SDS011;5268;49.346;9.522;2023-04-19T12:28:23;7.75;;;6.55;;
10440;SDS011;5268;49.346;9.522;2023-04-19T12:33:25;5.95;;;5.20;;
10440;SDS011;5268;49.346;9.522;2023-04-19T12:38:28;5.95;;;5.25;;
10440;SDS011;5268;49.346;9.522;2023-04-19T12:43:30;5.45;;;4.40;;
10440;SDS011;5268;49.346;9.522;2023-04-19T12:48:32;5.18;;;4.28;;
10440;SDS011;5268;49.346;9.522;2023-04-19T12:53:36;5.78;;;5.05;;
10440;SDS011;5268;49.346;9.522;2023-04-19T12:58:38;6.18;;;5.45;;
10440;SDS011;5268;49.346;9.522;2023-04-19T13:03:40;6.07;;;5.03;;
10440;SDS011;5268;49.346;9.522;2023-04-19T13:08:44;6.68;;;4.38;;
10440;SDS011;5268;49.346;9.522;2023-04-19T13:13:46;5.88;;;4.45;;
10440;SDS011;5268;49.346;9.522;2023-04-19T13:18:48;6.80;;;4.30;;
10440;SDS011;5268;49.346;9.522;2023-04-19T13:23:52;5.38;;;4.68;;
10440;SDS011;5268;49.346;9.522;2023-04-19T13:28:54;4.32;;;3.83;;
10440;SDS011;5268;49.346;9.522;2023-04-19T13:33:56;4.40;;;3.90;;
10440;SDS011;5268;49.346;9.522;2023-04-19T13:39:01;6.65;;;3.80;;
10440;SDS011;5268;49.346;9.522;2023-04-19T13:44:03;6.10;;;3.80;;
10440;SDS011;5268;49.346;9.522;2023-04-19T13:49:05;5.05;;;3.08;;
10440;SDS011;5268;49.346;9.522;2023-04-19T13:54:08;3.05;;;2.75;;
10440;SDS011;5268;49.346;9.522;2023-04-19T13:59:10;3.38;;;2.38;;
10440;SDS011;5268;49.346;9.522;2023-04-19T14:04:12;7.25;;;2.35;;
10440;SDS011;5268;49.346;9.522;2023-04-19T14:09:16;3.63;;;2.08;;
10440;SDS011;5268;49.346;9.522;2023-04-19T14:14:18;2.60;;;2.00;;
10440;SDS011;5268;49.346;9.522;2023-04-19T14:19:20;3.83;;;1.90;;
10440;SDS011;5268;49.346;9.522;2023-04-19T14:24:23;2.90;;;1.90;;
10440;SDS011;5268;49.346;9.522;2023-04-19T14:29:25;3.05;;;2.00;;
10440;SDS011;5268;49.346;9.522;2023-04-19T14:34:27;3.22;;;1.88;;
10440;SDS011;5268;49.346;9.522;2023-04-19T14:39:31;3.45;;;2.08;;
10440;SDS011;5268;49.346;9.522;2023-04-19T14:44:33;2.78;;;1.70;;
10440;SDS011;5268;49.346;9.522;2023-04-19T14:49:35;2.15;;;1.40;;
10440;SDS011;5268;49.346;9.522;2023-04-19T14:54:38;1.60;;;1.25;;
10440;SDS011;5268;49.346;9.522;2023-04-19T14:59:40;2.95;;;1.35;;
10440;SDS011;5268;49.346;9.522;2023-04-19T15:04:42;2.13;;;1.40;;
10440;SDS011;5268;49.346;9.522;2023-04-19T15:09:46;3.17;;;1.40;;
10440;SDS011;5268;49.346;9.522;2023-04-19T15:14:48;2.25;;;1.40;;
10440;SDS011;5268;49.346;9.522;2023-04-19T15:19:50;1.92;;;1.35;;
10440;SDS011;5268;49.346;9.522;2023-04-19T15:24:53;2.35;;;1.50;;
10440;SDS011;5268;49.346;9.522;2023-04-19T15:29:56;1.50;;;1.20;;
10440;SDS011;5268;49.346;9.522;2023-04-19T15:34:58;3.03;;;1.20;;
10440;SDS011;5268;49.346;9.522;2023-04-19T15:40:02;4.20;;;1.30;;
10440;SDS011;5268;49.346;9.522;2023-04-19T15:45:05;2.55;;;1.40;;
10440;SDS011;5268;49.346;9.522;2023-04-19T15:50:08;2.70;;;1.20;;
10440;SDS011;5268;49.346;9.522;2023-04-19T15:55:12;2.25;;;1.50;;
10440;SDS011;5268;49.346;9.522;2023-04-19T16:00:14;2.22;;;1.27;;
10440;SDS011;5268;49.346;9.522;2023-04-19T16:05:16;2.25;;;1.48;;
10440;SDS011;5268;49.346;9.522;2023-04-19T16:10:20;2.17;;;1.23;;
10440;SDS011;5268;49.346;9.522;2023-04-19T16:15:22;1.52;;;1.40;;
10440;SDS011;5268;49.346;9.522;2023-04-19T16:20:24;1.77;;;1.60;;
10440;SDS011;5268;49.346;9.522;2023-04-19T16:25:27;3.75;;;2.10;;
10440;SDS011;5268;49.346;9.522;2023-04-19T16:30:30;2.60;;;1.40;;
10440;SDS011;5268;49.346;9.522;2023-04-19T16:35:32;3.88;;;1.80;;
10440;SDS011;5268;49.346;9.522;2023-04-19T16:40:36;3.67;;;1.65;;
10440;SDS011;5268;49.346;9.522;2023-04-19T16:45:38;3.17;;;1.80;;
10440;SDS011;5268;49.346;9.522;2023-04-19T16:50:41;3.00;;;1.98;;
10440;SDS011;5268;49.346;9.522;2023-04-19T16:55:45;3.33;;;2.00;;
10440;SDS011;5268;49.346;9.522;2023-04-19T17:00:46;4.38;;;1.80;;
10440;SDS011;5268;49.346;9.522;2023-04-19T17:05:48;2.38;;;2.00;;
10440;SDS011;5268;49.346;9.522;2023-04-19T17:10:52;3.20;;;1.90;;
10440;SDS011;5268;49.346;9.522;2023-04-19T17:15:54;3.22;;;2.00;;
10440;SDS011;5268;49.346;9.522;2023-04-19T17:20:56;3.70;;;2.03;;
10440;SDS011;5268;49.346;9.522;2023-04-19T17:25:59;4.53;;;2.30;;
10440;SDS011;5268;49.346;9.522;2023-04-19T17:31:01;3.15;;;2.00;;
10440;SDS011;5268;49.346;9.522;2023-04-19T17:36:03;3.35;;;2.00;;
10440;SDS011;5268;49.346;9.522;2023-04-19T17:41:07;2.67;;;1.70;;
10440;SDS011;5268;49.346;9.522;2023-04-19T17:46:15;2.72;;;1.80;;
10440;SDS011;5268;49.346;9.522;2023-04-19T17:51:18;3.30;;;1.70;;
10440;SDS011;5268;49.346;9.522;2023-04-19T17:56:21;3.40;;;2.00;;
10440;SDS011;5268;49.346;9.522;2023-04-19T18:01:23;3.25;;;2.00;;
10440;SDS011;5268;49.346;9.522;2023-04-19T18:06:25;3.65;;;2.05;;
10440;SDS011;5268;49.346;9.522;2023-04-19T18:11:28;3.47;;;2.15;;
10440;SDS011;5268;49.346;9.522;2023-04-19T18:16:31;13.27;;;6.90;;
10440;SDS011;5268;49.346;9.522;2023-04-19T18:21:34;5.88;;;2.88;;
10440;SDS011;5268;49.346;9.522;2023-04-19T18:26:38;4.18;;;2.58;;
10440;SDS011;5268;49.346;9.522;2023-04-19T18:31:40;3.45;;;2.80;;
10440;SDS011;5268;49.346;9.522;2023-04-19T18:36:42;10.15;;;6.57;;
10440;SDS011;5268;49.346;9.522;2023-04-19T18:41:46;5.32;;;4.00;;
10440;SDS011;5268;49.346;9.522;2023-04-19T18:46:50;9.63;;;5.38;;
10440;SDS011;5268;49.346;9.522;2023-04-19T18:51:53;6.82;;;3.80;;
10440;SDS011;5268;49.346;9.522;2023-04-19T18:56:56;3.90;;;2.80;;
10440;SDS011;5268;49.346;9.522;2023-04-19T19:02:01;4.20;;;3.00;;
10440;SDS011;5268;49.346;9.522;2023-04-19T19:07:03;4.50;;;2.70;;
10440;SDS011;5268;49.346;9.522;2023-04-19T19:12:06;5.40;;;2.92;;
10440;SDS011;5268;49.346;9.522;2023-04-19T19:17:08;3.97;;;2.10;;
10440;SDS011;5268;49.346;9.522;2023-04-19T19:22:12;2.83;;;2.13;;
10440;SDS011;5268;49.346;9.522;2023-04-19T19:27:15;3.35;;;2.05;;
10440;SDS011;5268;49.346;9.522;2023-04-19T19:32:17;2.55;;;1.90;;
10440;SDS011;5268;49.346;9.522;2023-04-19T19:37:19;2.28;;;2.08;;
10440;SDS011;5268;49.346;9.522;2023-04-19T19:42:23;2.95;;;2.20;;
10440;SDS011;5268;49.346;9.522;2023-04-19T19:47:25;4.43;;;2.10;;
10440;SDS011;5268;49.346;9.522;2023-04-19T19:52:29;3.13;;;2.38;;
10440;SDS011;5268;49.346;9.522;2023-04-19T19:57:33;3.60;;;2.35;;
10440;SDS011;5268;49.346;9.522;2023-04-19T20:02:35;6.03;;;3.55;;
10440;SDS011;5268;49.346;9.522;2023-04-19T20:07:38;6.93;;;4.60;;
10440;SDS011;5268;49.346;9.522;2023-04-19T20:12:42;3.97;;;3.38;;
10440;SDS011;5268;49.346;9.522;2023-04-19T20:17:44;4.57;;;3.33;;
10440;SDS011;5268;49.346;9.522;2023-04-19T20:22:46;6.07;;;4.85;;
10440;SDS011;5268;49.346;9.522;2023-04-19T20:27:49;13.07;;;9.65;;
10440;SDS011;5268;49.346;9.522;2023-04-19T20:32:51;13.93;;;7.70;;
10440;SDS011;5268;49.346;9.522;2023-04-19T20:37:53;8.57;;;6.20;;
10440;SDS011;5268;49.346;9.522;2023-04-19T20:43:02;5.00;;;3.70;;
10440;SDS011;5268;49.346;9.522;2023-04-19T20:48:05;4.45;;;3.58;;
10440;SDS011;5268;49.346;9.522;2023-04-19T20:53:07;4.38;;;3.00;;
10440;SDS011;5268;49.346;9.522;2023-04-19T20:58:11;3.35;;;2.90;;
10440;SDS011;5268;49.346;9.522;2023-04-19T21:03:13;3.80;;;2.67;;
10440;SDS011;5268;49.346;9.522;2023-04-19T21:08:15;5.70;;;3.15;;
10440;SDS011;5268;49.346;9.522;2023-04-19T21:13:19;4.38;;;3.22;;
10440;SDS011;5268;49.346;9.522;2023-04-19T21:18:21;6.13;;;3.13;;
10440;SDS011;5268;49.346;9.522;2023-04-19T21:23:23;5.15;;;3.50;;
10440;SDS011;5268;49.346;9.522;2023-04-19T21:28:27;8.80;;;6.07;;
10440;SDS011;5268;49.346;9.522;2023-04-19T21:33:28;10.32;;;6.93;;
10440;SDS011;5268;49.346;9.522;2023-04-19T21:38:30;4.43;;;3.70;;
10440;SDS011;5268;49.346;9.522;2023-04-19T21:43:35;6.63;;;4.03;;
10440;SDS011;5268;49.346;9.522;2023-04-19T21:48:37;7.97;;;4.68;;
10440;SDS011;5268;49.346;9.522;2023-04-19T21:53:39;6.05;;;4.88;;
